sensor_id;sensor_type;location;lat;lon;timestamp;pressure;altitude;pressure_sealevel;temperature;humidity
13486;BME280;6815;59.336;17.998;2022-12-24T00:00:20;78032.16;;;-145.37;80.69
13486;BME280;6815;59.336;17.998;2022-12-24T00:02:45;78030.16;;;-145.37;81.01
13486;BME280;6815;59.336;17.998;2022-12-24T00:05:11;78082.44;;;-145.37;81.72
13486;BME280;6815;59.336;17.998;2022-12-24T00:07:36;78070.38;;;-145.37;82.07
13486;BME280;6815;59.336;17.998;2022-12-24T00:10:04;78040.22;;;-145.37;81.15
13486;BME280;6815;59.336;17.998;2022-12-24T00:12:30;78026.13;;;-145.37;80.41
13486;BME280;6815;59.336;17.998;2022-12-24T00:14:56;78054.28;;;-145.37;80.01
13486;BME280;6815;59.336;17.998;2022-12-24T00:17:22;78042.22;;;-145.37;80.68
13486;BME280;6815;59.336;17.998;2022-12-24T00:19:47;78022.09;;;-145.37;79.82
13486;BME280;6815;59.336;17.998;2022-12-24T00:22:13;78046.25;;;-145.37;80.01
13486;BME280;6815;59.336;17.998;2022-12-24T00:24:38;78060.31;;;-145.37;80.29
13486;BME280;6815;59.336;17.998;2022-12-24T00:27:04;78068.38;;;-145.37;80.52
13486;BME280;6815;59.336;17.998;2022-12-24T00:29:32;78100.56;;;-145.37;81.95
13486;BME280;6815;59.336;17.998;2022-12-24T00:31:59;78062.34;;;-145.37;81.09
13486;BME280;6815;59.336;17.998;2022-12-24T00:34:24;78074.41;;;-145.37;80.81
13486;BME280;6815;59.336;17.998;2022-12-24T00:36:50;78078.44;;;-145.37;81.21
13486;BME280;6815;59.336;17.998;2022-12-24T00:39:16;78076.41;;;-145.37;80.93
13486;BME280;6815;59.336;17.998;2022-12-24T00:41:41;78082.44;;;-145.37;80.95
13486;BME280;6815;59.336;17.998;2022-12-24T00:44:08;78080.44;;;-145.37;80.52
13486;BME280;6815;59.336;17.998;2022-12-24T00:46:39;78158.88;;;-145.37;81.88
13486;BME280;6815;59.336;17.998;2022-12-24T00:49:06;78126.69;;;-145.37;81.88
13486;BME280;6815;59.336;17.998;2022-12-24T00:51:33;78102.56;;;-145.37;81.18
13486;BME280;6815;59.336;17.998;2022-12-24T00:53:58;78106.59;;;-145.37;81.05
13486;BME280;6815;59.336;17.998;2022-12-24T00:56:24;78106.59;;;-145.37;81.22
13486;BME280;6815;59.336;17.998;2022-12-24T00:58:50;78104.56;;;-145.37;80.96
13486;BME280;6815;59.336;17.998;2022-12-24T01:01:16;78092.50;;;-145.37;80.83
13486;BME280;6815;59.336;17.998;2022-12-24T01:03:42;78102.56;;;-145.37;80.62
13486;BME280;6815;59.336;17.998;2022-12-24T01:06:13;78092.50;;;-145.37;81.10
13486;BME280;6815;59.336;17.998;2022-12-24T01:08:40;78116.66;;;-145.37;81.20
13486;BME280;6815;59.336;17.998;2022-12-24T01:11:07;78102.56;;;-145.37;81.07
13486;BME280;6815;59.336;17.998;2022-12-24T01:13:34;78104.56;;;-145.37;80.91
13486;BME280;6815;59.336;17.998;2022-12-24T01:15:59;78096.53;;;-145.37;80.74
13486;BME280;6815;59.336;17.998;2022-12-24T01:18:26;78106.59;;;-145.37;80.68
13486;BME280;6815;59.336;17.998;2022-12-24T01:21:01;78118.66;;;-145.37;81.16
13486;BME280;6815;59.336;17.998;2022-12-24T01:23:30;78106.59;;;-145.37;80.70
13486;BME280;6815;59.336;17.998;2022-12-24T01:26:00;78102.56;;;-145.37;80.50
13486;BME280;6815;59.336;17.998;2022-12-24T01:28:26;78142.78;;;-145.37;81.05
13486;BME280;6815;59.336;17.998;2022-12-24T01:30:52;78172.97;;;-145.37;82.03
13486;BME280;6815;59.336;17.998;2022-12-24T01:33:17;78154.88;;;-145.37;82.38
13486;BME280;6815;59.336;17.998;2022-12-24T01:35:43;78108.59;;;-145.37;80.91
13486;BME280;6815;59.336;17.998;2022-12-24T01:38:10;78146.81;;;-145.37;80.76
13486;BME280;6815;59.336;17.998;2022-12-24T01:40:38;78152.84;;;-145.37;81.09
13486;BME280;6815;59.336;17.998;2022-12-24T01:43:24;78134.75;;;-145.37;81.31
13486;BME280;6815;59.336;17.998;2022-12-24T01:45:58;78142.78;;;-145.37;80.87
13486;BME280;6815;59.336;17.998;2022-12-24T01:51:06;78197.09;;;-145.37;82.24
13486;BME280;6815;59.336;17.998;2022-12-24T01:53:35;78142.78;;;-145.37;81.38
13486;BME280;6815;59.336;17.998;2022-12-24T01:56:03;78126.69;;;-145.37;81.21
13486;BME280;6815;59.336;17.998;2022-12-24T01:58:31;78128.72;;;-145.37;80.60
13486;BME280;6815;59.336;17.998;2022-12-24T02:00:57;78183.03;;;-145.37;81.62
13486;BME280;6815;59.336;17.998;2022-12-24T02:03:23;78170.97;;;-145.37;81.94
13486;BME280;6815;59.336;17.998;2022-12-24T02:05:51;78160.91;;;-145.37;81.54
13486;BME280;6815;59.336;17.998;2022-12-24T02:08:19;78154.88;;;-145.37;81.15
13486;BME280;6815;59.336;17.998;2022-12-24T02:10:46;78174.97;;;-145.37;81.35
13486;BME280;6815;59.336;17.998;2022-12-24T02:13:13;78152.84;;;-145.37;80.69
13486;BME280;6815;59.336;17.998;2022-12-24T02:27:15;78166.94;;;-145.37;80.09
13486;BME280;6815;59.336;17.998;2022-12-24T02:30:01;78179.00;;;-145.37;80.02
13486;BME280;6815;59.336;17.998;2022-12-24T02:32:35;78160.91;;;-145.37;79.26
13486;BME280;6815;59.336;17.998;2022-12-24T02:37:39;78183.03;;;-145.37;79.52
13486;BME280;6815;59.336;17.998;2022-12-24T02:40:12;78193.09;;;-145.37;80.21
13486;BME280;6815;59.336;17.998;2022-12-24T02:42:41;78177.00;;;-145.37;79.85
13486;BME280;6815;59.336;17.998;2022-12-24T02:45:08;78197.09;;;-145.37;80.18
13486;BME280;6815;59.336;17.998;2022-12-24T02:47:35;78231.31;;;-145.37;80.66
13486;BME280;6815;59.336;17.998;2022-12-24T02:50:03;78211.19;;;-145.37;80.66
13486;BME280;6815;59.336;17.998;2022-12-24T02:55:03;78209.19;;;-145.37;80.06
13486;BME280;6815;59.336;17.998;2022-12-24T03:00:10;78217.22;;;-145.37;80.13
13486;BME280;6815;59.336;17.998;2022-12-24T03:07:55;78265.50;;;-145.37;81.30
13486;BME280;6815;59.336;17.998;2022-12-24T03:13:00;78255.44;;;-145.37;80.76
13486;BME280;6815;59.336;17.998;2022-12-24T03:15:27;78227.28;;;-145.37;80.48
13486;BME280;6815;59.336;17.998;2022-12-24T03:17:56;78253.44;;;-145.37;81.33
13486;BME280;6815;59.336;17.998;2022-12-24T03:20:37;78257.44;;;-145.37;81.50
13486;BME280;6815;59.336;17.998;2022-12-24T03:23:04;78257.44;;;-145.37;81.02
13486;BME280;6815;59.336;17.998;2022-12-24T03:25:31;78277.56;;;-145.37;81.66
13486;BME280;6815;59.336;17.998;2022-12-24T03:28:02;78267.50;;;-145.37;81.35
13486;BME280;6815;59.336;17.998;2022-12-24T03:30:30;78257.44;;;-145.37;80.48
13486;BME280;6815;59.336;17.998;2022-12-24T03:32:56;78255.44;;;-145.37;80.57
13486;BME280;6815;59.336;17.998;2022-12-24T03:35:23;78263.47;;;-145.37;80.76
13486;BME280;6815;59.336;17.998;2022-12-24T03:37:48;78247.41;;;-145.37;80.04
13486;BME280;6815;59.336;17.998;2022-12-24T03:40:14;78301.69;;;-145.37;81.02
13486;BME280;6815;59.336;17.998;2022-12-24T03:42:39;78289.63;;;-145.37;81.61
13486;BME280;6815;59.336;17.998;2022-12-24T03:45:05;78281.59;;;-145.37;81.02
13486;BME280;6815;59.336;17.998;2022-12-24T03:47:33;78247.41;;;-145.37;80.07
13486;BME280;6815;59.336;17.998;2022-12-24T03:50:01;78299.69;;;-145.37;81.01
13486;BME280;6815;59.336;17.998;2022-12-24T03:52:28;78329.88;;;-145.37;80.33
13486;BME280;6815;59.336;17.998;2022-12-24T03:54:55;78291.66;;;-145.37;80.27
13486;BME280;6815;59.336;17.998;2022-12-24T03:57:21;78283.59;;;-145.37;80.10
13486;BME280;6815;59.336;17.998;2022-12-24T03:59:47;78297.69;;;-145.37;80.10
13486;BME280;6815;59.336;17.998;2022-12-24T04:02:13;78293.66;;;-145.37;79.78
13486;BME280;6815;59.336;17.998;2022-12-24T04:04:38;78295.66;;;-145.37;79.59
13486;BME280;6815;59.336;17.998;2022-12-24T04:07:05;78279.56;;;-145.37;78.93
13486;BME280;6815;59.336;17.998;2022-12-24T04:09:31;78295.66;;;-145.37;79.31
13486;BME280;6815;59.336;17.998;2022-12-24T04:11:56;78339.94;;;-145.37;80.44
13486;BME280;6815;59.336;17.998;2022-12-24T04:14:22;78325.84;;;-145.37;80.86
13486;BME280;6815;59.336;17.998;2022-12-24T04:16:47;78325.84;;;-145.37;80.79
13486;BME280;6815;59.336;17.998;2022-12-24T04:19:13;78307.75;;;-145.37;80.10
13486;BME280;6815;59.336;17.998;2022-12-24T04:21:38;78315.78;;;-145.37;80.51
13486;BME280;6815;59.336;17.998;2022-12-24T04:24:06;78307.75;;;-145.37;79.93
13486;BME280;6815;59.336;17.998;2022-12-24T04:26:31;78289.63;;;-145.37;79.73
13486;BME280;6815;59.336;17.998;2022-12-24T04:28:57;78319.81;;;-145.37;80.31
13486;BME280;6815;59.336;17.998;2022-12-24T04:31:22;78319.81;;;-145.37;80.42
13486;BME280;6815;59.336;17.998;2022-12-24T04:33:50;78307.75;;;-145.37;79.79
13486;BME280;6815;59.336;17.998;2022-12-24T04:36:17;78303.72;;;-145.37;78.78
13486;BME280;6815;59.336;17.998;2022-12-24T04:38:43;78299.69;;;-145.37;78.75
13486;BME280;6815;59.336;17.998;2022-12-24T04:41:18;78303.72;;;-145.37;78.64
13486;BME280;6815;59.336;17.998;2022-12-24T04:43:44;78303.72;;;-145.37;78.74
13486;BME280;6815;59.336;17.998;2022-12-24T04:46:12;78313.78;;;-145.37;79.04
13486;BME280;6815;59.336;17.998;2022-12-24T04:48:43;78331.88;;;-145.37;79.29
13486;BME280;6815;59.336;17.998;2022-12-24T04:51:10;78315.78;;;-145.37;79.15
13486;BME280;6815;59.336;17.998;2022-12-24T04:53:35;78323.84;;;-145.37;79.37
13486;BME280;6815;59.336;17.998;2022-12-24T04:56:02;78339.94;;;-145.37;79.62
13486;BME280;6815;59.336;17.998;2022-12-24T04:58:27;78323.84;;;-145.37;79.34
13486;BME280;6815;59.336;17.998;2022-12-24T05:00:55;78341.94;;;-145.37;79.15
13486;BME280;6815;59.336;17.998;2022-12-24T05:03:20;78323.84;;;-145.37;79.17
13486;BME280;6815;59.336;17.998;2022-12-24T05:05:46;78341.94;;;-145.37;79.45
13486;BME280;6815;59.336;17.998;2022-12-24T05:08:12;78343.94;;;-145.37;79.34
13486;BME280;6815;59.336;17.998;2022-12-24T05:10:38;78364.06;;;-145.37;79.95
13486;BME280;6815;59.336;17.998;2022-12-24T05:13:04;78368.09;;;-145.37;79.88
13486;BME280;6815;59.336;17.998;2022-12-24T05:15:29;78352.00;;;-145.37;80.40
13486;BME280;6815;59.336;17.998;2022-12-24T05:17:55;78370.09;;;-145.37;80.95
13486;BME280;6815;59.336;17.998;2022-12-24T05:20:20;78347.97;;;-145.37;80.26
13486;BME280;6815;59.336;17.998;2022-12-24T05:22:45;78337.91;;;-145.37;79.67
13486;BME280;6815;59.336;17.998;2022-12-24T05:25:37;78364.06;;;-145.37;80.55
13486;BME280;6815;59.336;17.998;2022-12-24T05:28:22;78339.94;;;-145.37;80.25
13486;BME280;6815;59.336;17.998;2022-12-24T05:30:48;78364.06;;;-145.37;80.82
13486;BME280;6815;59.336;17.998;2022-12-24T05:33:14;78396.25;;;-145.37;80.86
13486;BME280;6815;59.336;17.998;2022-12-24T05:35:41;78390.22;;;-145.37;81.71
13486;BME280;6815;59.336;17.998;2022-12-24T05:38:06;78372.09;;;-145.37;81.42
13486;BME280;6815;59.336;17.998;2022-12-24T05:40:32;78368.09;;;-145.37;80.57
13486;BME280;6815;59.336;17.998;2022-12-24T05:42:57;78360.03;;;-145.37;80.66
13486;BME280;6815;59.336;17.998;2022-12-24T05:45:22;78382.16;;;-145.37;80.69
13486;BME280;6815;59.336;17.998;2022-12-24T05:47:49;78382.16;;;-145.37;80.66
13486;BME280;6815;59.336;17.998;2022-12-24T05:50:16;78386.19;;;-145.37;80.93
13486;BME280;6815;59.336;17.998;2022-12-24T05:52:41;78378.16;;;-145.37;80.45
13486;BME280;6815;59.336;17.998;2022-12-24T05:55:07;78386.19;;;-145.37;80.50
13486;BME280;6815;59.336;17.998;2022-12-24T05:57:33;78392.22;;;-145.37;80.54
13486;BME280;6815;59.336;17.998;2022-12-24T06:00:00;78404.28;;;-145.37;81.27
13486;BME280;6815;59.336;17.998;2022-12-24T06:02:25;78398.25;;;-145.37;80.93
13486;BME280;6815;59.336;17.998;2022-12-24T06:04:51;78404.28;;;-145.37;80.97
13486;BME280;6815;59.336;17.998;2022-12-24T06:07:16;78396.25;;;-145.37;80.80
13486;BME280;6815;59.336;17.998;2022-12-24T06:09:42;78400.28;;;-145.37;80.74
13486;BME280;6815;59.336;17.998;2022-12-24T06:12:07;78442.53;;;-145.37;81.46
13486;BME280;6815;59.336;17.998;2022-12-24T06:14:33;78430.44;;;-145.37;81.28
13486;BME280;6815;59.336;17.998;2022-12-24T06:16:58;78440.50;;;-145.37;81.22
13486;BME280;6815;59.336;17.998;2022-12-24T06:19:25;78424.41;;;-145.37;81.86
13486;BME280;6815;59.336;17.998;2022-12-24T06:21:50;78444.53;;;-145.37;81.68
13486;BME280;6815;59.336;17.998;2022-12-24T06:24:16;78434.47;;;-145.37;81.69
13486;BME280;6815;59.336;17.998;2022-12-24T06:26:41;78424.41;;;-145.37;81.46
13486;BME280;6815;59.336;17.998;2022-12-24T06:29:07;78428.44;;;-145.37;81.32
13486;BME280;6815;59.336;17.998;2022-12-24T06:31:32;78446.53;;;-145.37;81.62
13486;BME280;6815;59.336;17.998;2022-12-24T06:33:58;78436.47;;;-145.37;81.65
13486;BME280;6815;59.336;17.998;2022-12-24T06:36:24;78444.53;;;-145.37;81.63
13486;BME280;6815;59.336;17.998;2022-12-24T06:38:51;78460.63;;;-145.37;81.90
13486;BME280;6815;59.336;17.998;2022-12-24T06:41:17;78450.56;;;-145.37;81.97
13486;BME280;6815;59.336;17.998;2022-12-24T06:43:48;78442.53;;;-145.37;81.38
13486;BME280;6815;59.336;17.998;2022-12-24T06:46:14;78448.56;;;-145.37;81.59
13486;BME280;6815;59.336;17.998;2022-12-24T06:48:42;78444.53;;;-145.37;81.50
13486;BME280;6815;59.336;17.998;2022-12-24T06:51:10;78466.66;;;-145.37;81.68
13486;BME280;6815;59.336;17.998;2022-12-24T06:53:37;78460.63;;;-145.37;81.85
13486;BME280;6815;59.336;17.998;2022-12-24T06:56:04;78436.47;;;-145.37;81.34
13486;BME280;6815;59.336;17.998;2022-12-24T06:58:31;78446.53;;;-145.37;81.79
13486;BME280;6815;59.336;17.998;2022-12-24T07:01:03;78444.53;;;-145.37;81.80
13486;BME280;6815;59.336;17.998;2022-12-24T07:03:29;78462.63;;;-145.37;81.68
13486;BME280;6815;59.336;17.998;2022-12-24T07:05:55;78458.63;;;-145.37;81.99
13486;BME280;6815;59.336;17.998;2022-12-24T07:08:21;78462.63;;;-145.37;81.52
13486;BME280;6815;59.336;17.998;2022-12-24T07:10:49;78492.81;;;-145.37;82.42
13486;BME280;6815;59.336;17.998;2022-12-24T07:13:15;78492.81;;;-145.37;82.95
13486;BME280;6815;59.336;17.998;2022-12-24T07:15:42;78472.69;;;-145.37;81.92
13486;BME280;6815;59.336;17.998;2022-12-24T07:18:08;78488.78;;;-145.37;82.35
13486;BME280;6815;59.336;17.998;2022-12-24T07:20:34;78466.66;;;-145.37;81.91
13486;BME280;6815;59.336;17.998;2022-12-24T07:23:00;78470.69;;;-145.37;81.67
13486;BME280;6815;59.336;17.998;2022-12-24T07:25:29;78470.69;;;-145.37;81.29
13486;BME280;6815;59.336;17.998;2022-12-24T07:27:55;78464.66;;;-145.37;81.10
13486;BME280;6815;59.336;17.998;2022-12-24T07:30:20;78476.72;;;-145.37;80.87
13486;BME280;6815;59.336;17.998;2022-12-24T07:32:46;78460.63;;;-145.37;80.71
13486;BME280;6815;59.336;17.998;2022-12-24T07:35:11;78490.78;;;-145.37;80.55
13486;BME280;6815;59.336;17.998;2022-12-24T07:37:38;78490.78;;;-145.37;81.58
13486;BME280;6815;59.336;17.998;2022-12-24T07:40:06;78488.78;;;-145.37;81.32
13486;BME280;6815;59.336;17.998;2022-12-24T07:42:33;78490.78;;;-145.37;81.41
13486;BME280;6815;59.336;17.998;2022-12-24T07:45:01;78500.84;;;-145.37;81.65
13486;BME280;6815;59.336;17.998;2022-12-24T07:47:26;78478.72;;;-145.37;81.15
13486;BME280;6815;59.336;17.998;2022-12-24T07:49:52;78490.78;;;-145.37;81.12
13486;BME280;6815;59.336;17.998;2022-12-24T07:52:18;78504.88;;;-145.37;81.31
13486;BME280;6815;59.336;17.998;2022-12-24T07:54:43;78512.94;;;-145.37;81.80
13486;BME280;6815;59.336;17.998;2022-12-24T07:57:09;78529.03;;;-145.37;82.07
13486;BME280;6815;59.336;17.998;2022-12-24T07:59:34;78516.94;;;-145.37;81.80
13486;BME280;6815;59.336;17.998;2022-12-24T08:02:01;78537.06;;;-145.37;82.26
13486;BME280;6815;59.336;17.998;2022-12-24T08:04:30;78525.00;;;-145.37;82.04
13486;BME280;6815;59.336;17.998;2022-12-24T08:06:56;78508.91;;;-145.37;81.63
13486;BME280;6815;59.336;17.998;2022-12-24T08:09:23;78523.00;;;-145.37;81.97
13486;BME280;6815;59.336;17.998;2022-12-24T08:11:48;78520.97;;;-145.37;81.98
13486;BME280;6815;59.336;17.998;2022-12-24T08:14:14;78520.97;;;-145.37;82.02
13486;BME280;6815;59.336;17.998;2022-12-24T08:16:39;78541.09;;;-145.37;82.10
13486;BME280;6815;59.336;17.998;2022-12-24T08:19:05;78539.06;;;-145.37;82.19
13486;BME280;6815;59.336;17.998;2022-12-24T08:21:32;78537.06;;;-145.37;82.02
13486;BME280;6815;59.336;17.998;2022-12-24T08:23:57;78555.16;;;-145.37;82.49
13486;BME280;6815;59.336;17.998;2022-12-24T08:26:23;78537.06;;;-145.37;82.77
13486;BME280;6815;59.336;17.998;2022-12-24T08:28:48;78567.25;;;-145.37;83.02
13486;BME280;6815;59.336;17.998;2022-12-24T08:31:14;78537.06;;;-145.37;82.55
13486;BME280;6815;59.336;17.998;2022-12-24T08:33:40;78529.03;;;-145.37;82.08
13486;BME280;6815;59.336;17.998;2022-12-24T08:36:06;78543.09;;;-145.37;82.10
13486;BME280;6815;59.336;17.998;2022-12-24T08:38:31;78549.13;;;-145.37;82.23
13486;BME280;6815;59.336;17.998;2022-12-24T08:40:57;78533.03;;;-145.37;82.41
13486;BME280;6815;59.336;17.998;2022-12-24T08:43:23;78531.03;;;-145.37;82.33
13486;BME280;6815;59.336;17.998;2022-12-24T08:45:50;78531.03;;;-145.37;82.20
13486;BME280;6815;59.336;17.998;2022-12-24T08:48:16;78533.03;;;-145.37;82.44
13486;BME280;6815;59.336;17.998;2022-12-24T08:50:42;78553.16;;;-145.37;82.44
13486;BME280;6815;59.336;17.998;2022-12-24T08:53:09;78567.25;;;-145.37;83.52
13486;BME280;6815;59.336;17.998;2022-12-24T08:55:34;78545.13;;;-145.37;82.89
13486;BME280;6815;59.336;17.998;2022-12-24T08:58:00;78547.13;;;-145.37;82.74
13486;BME280;6815;59.336;17.998;2022-12-24T09:00:26;78547.13;;;-145.37;82.75
13486;BME280;6815;59.336;17.998;2022-12-24T09:02:51;78541.09;;;-145.37;82.32
13486;BME280;6815;59.336;17.998;2022-12-24T09:05:17;78547.13;;;-145.37;82.22
13486;BME280;6815;59.336;17.998;2022-12-24T09:07:43;78569.25;;;-145.37;82.63
13486;BME280;6815;59.336;17.998;2022-12-24T09:10:09;78563.22;;;-145.37;82.61
13486;BME280;6815;59.336;17.998;2022-12-24T09:12:35;78569.25;;;-145.37;82.85
13486;BME280;6815;59.336;17.998;2022-12-24T09:15:02;78551.16;;;-145.37;82.35
13486;BME280;6815;59.336;17.998;2022-12-24T09:17:29;78549.13;;;-145.37;82.40
13486;BME280;6815;59.336;17.998;2022-12-24T09:19:55;78557.19;;;-145.37;82.02
13486;BME280;6815;59.336;17.998;2022-12-24T09:22:21;78549.13;;;-145.37;81.90
13486;BME280;6815;59.336;17.998;2022-12-24T09:24:46;78563.22;;;-145.37;82.34
13486;BME280;6815;59.336;17.998;2022-12-24T09:27:12;78569.25;;;-145.37;82.69
13486;BME280;6815;59.336;17.998;2022-12-24T09:29:37;78587.34;;;-145.37;82.76
13486;BME280;6815;59.336;17.998;2022-12-24T09:32:05;78577.31;;;-145.37;82.55
13486;BME280;6815;59.336;17.998;2022-12-24T09:34:31;78571.25;;;-145.37;82.58
13486;BME280;6815;59.336;17.998;2022-12-24T09:36:58;78579.31;;;-145.37;82.91
13486;BME280;6815;59.336;17.998;2022-12-24T09:39:26;78595.41;;;-145.37;83.51
13486;BME280;6815;59.336;17.998;2022-12-24T09:45:13;78575.28;;;-145.37;83.04
13486;BME280;6815;59.336;17.998;2022-12-24T09:48:02;78565.22;;;-145.37;82.74
13486;BME280;6815;59.336;17.998;2022-12-24T09:53:25;78597.41;;;-145.37;82.81
13486;BME280;6815;59.336;17.998;2022-12-24T09:55:58;78575.28;;;-145.37;82.75
13486;BME280;6815;59.336;17.998;2022-12-24T09:58:56;78569.25;;;-145.37;82.89
13486;BME280;6815;59.336;17.998;2022-12-24T10:01:23;78609.50;;;-145.37;84.06
13486;BME280;6815;59.336;17.998;2022-12-24T10:03:51;78577.31;;;-145.37;83.14
13486;BME280;6815;59.336;17.998;2022-12-24T10:12:08;78579.31;;;-145.37;83.43
13486;BME280;6815;59.336;17.998;2022-12-24T10:25:20;78601.44;;;-145.37;84.61
13486;BME280;6815;59.336;17.998;2022-12-24T10:27:50;78581.31;;;-145.37;83.70
13486;BME280;6815;59.336;17.998;2022-12-24T10:30:22;78583.34;;;-145.37;84.01
13486;BME280;6815;59.336;17.998;2022-12-24T10:32:52;78561.22;;;-145.37;83.54
13486;BME280;6815;59.336;17.998;2022-12-24T10:35:24;78555.16;;;-145.37;83.32
13486;BME280;6815;59.336;17.998;2022-12-24T10:37:52;78557.19;;;-145.37;82.98
13486;BME280;6815;59.336;17.998;2022-12-24T10:40:31;78565.22;;;-145.37;83.08
13486;BME280;6815;59.336;17.998;2022-12-24T10:43:11;78601.44;;;-145.37;83.42
13486;BME280;6815;59.336;17.998;2022-12-24T10:45:41;78569.25;;;-145.37;83.38
13486;BME280;6815;59.336;17.998;2022-12-24T10:48:13;78559.19;;;-145.37;83.06
13486;BME280;6815;59.336;17.998;2022-12-24T10:50:57;78555.16;;;-145.37;83.02
13486;BME280;6815;59.336;17.998;2022-12-24T10:53:32;78575.28;;;-145.37;83.29
13486;BME280;6815;59.336;17.998;2022-12-24T10:56:04;78559.19;;;-145.37;82.92
13486;BME280;6815;59.336;17.998;2022-12-24T10:58:30;78547.13;;;-145.37;82.36
13486;BME280;6815;59.336;17.998;2022-12-24T11:00:56;78557.19;;;-145.37;82.41
13486;BME280;6815;59.336;17.998;2022-12-24T11:03:41;78557.19;;;-145.37;82.47
13486;BME280;6815;59.336;17.998;2022-12-24T11:06:16;78549.13;;;-145.37;82.49
13486;BME280;6815;59.336;17.998;2022-12-24T11:08:47;78553.16;;;-145.37;82.16
13486;BME280;6815;59.336;17.998;2022-12-24T11:11:19;78555.16;;;-145.37;82.27
13486;BME280;6815;59.336;17.998;2022-12-24T11:16:37;78555.16;;;-145.37;82.26
13486;BME280;6815;59.336;17.998;2022-12-24T11:19:05;78555.16;;;-145.37;82.23
13486;BME280;6815;59.336;17.998;2022-12-24T11:21:41;78565.22;;;-145.37;82.82
13486;BME280;6815;59.336;17.998;2022-12-24T11:24:25;78549.13;;;-145.37;83.00
13486;BME280;6815;59.336;17.998;2022-12-24T11:26:53;78559.19;;;-145.37;82.75
13486;BME280;6815;59.336;17.998;2022-12-24T11:29:25;78543.09;;;-145.37;82.39
13486;BME280;6815;59.336;17.998;2022-12-24T11:31:51;78545.13;;;-145.37;82.55
13486;BME280;6815;59.336;17.998;2022-12-24T11:36:52;78533.03;;;-145.37;82.23
13486;BME280;6815;59.336;17.998;2022-12-24T11:39:22;78535.06;;;-145.37;82.34
13486;BME280;6815;59.336;17.998;2022-12-24T11:41:49;78539.06;;;-145.37;82.10
13486;BME280;6815;59.336;17.998;2022-12-24T11:44:27;78551.16;;;-145.37;82.66
13486;BME280;6815;59.336;17.998;2022-12-24T11:46:54;78539.06;;;-145.37;82.17
13486;BME280;6815;59.336;17.998;2022-12-24T11:49:28;78551.16;;;-145.37;82.16
13486;BME280;6815;59.336;17.998;2022-12-24T11:54:47;78547.13;;;-145.37;82.17
13486;BME280;6815;59.336;17.998;2022-12-24T11:57:17;78555.16;;;-145.37;82.41
13486;BME280;6815;59.336;17.998;2022-12-24T11:59:46;78571.25;;;-145.37;83.04
13486;BME280;6815;59.336;17.998;2022-12-24T12:02:36;78559.19;;;-145.37;83.02
13486;BME280;6815;59.336;17.998;2022-12-24T12:05:26;78569.25;;;-145.37;82.61
13486;BME280;6815;59.336;17.998;2022-12-24T12:08:12;78557.19;;;-145.37;82.49
13486;BME280;6815;59.336;17.998;2022-12-24T12:10:41;78553.16;;;-145.37;82.64
13486;BME280;6815;59.336;17.998;2022-12-24T12:13:18;78545.13;;;-145.37;82.61
13486;BME280;6815;59.336;17.998;2022-12-24T12:16:00;78553.16;;;-145.37;82.58
13486;BME280;6815;59.336;17.998;2022-12-24T12:18:41;78559.19;;;-145.37;82.86
13486;BME280;6815;59.336;17.998;2022-12-24T12:21:17;78561.22;;;-145.37;83.08
13486;BME280;6815;59.336;17.998;2022-12-24T12:23:57;78563.22;;;-145.37;83.22
13486;BME280;6815;59.336;17.998;2022-12-24T12:26:29;78561.22;;;-145.37;82.83
13486;BME280;6815;59.336;17.998;2022-12-24T12:29:05;78563.22;;;-145.37;83.07
13486;BME280;6815;59.336;17.998;2022-12-24T12:31:46;78559.19;;;-145.37;83.12
13486;BME280;6815;59.336;17.998;2022-12-24T12:34:19;78559.19;;;-145.37;82.94
13486;BME280;6815;59.336;17.998;2022-12-24T12:39:11;78559.19;;;-145.37;82.89
13486;BME280;6815;59.336;17.998;2022-12-24T12:52:42;78579.31;;;-145.37;82.71
13486;BME280;6815;59.336;17.998;2022-12-24T12:55:26;78565.22;;;-145.37;82.75
13486;BME280;6815;59.336;17.998;2022-12-24T12:58:00;78567.25;;;-145.37;82.80
13486;BME280;6815;59.336;17.998;2022-12-24T13:00:30;78563.22;;;-145.37;82.65
13486;BME280;6815;59.336;17.998;2022-12-24T13:03:41;78557.19;;;-145.37;82.68
13486;BME280;6815;59.336;17.998;2022-12-24T13:06:28;78563.22;;;-145.37;82.58
13486;BME280;6815;59.336;17.998;2022-12-24T13:09:18;78581.31;;;-145.37;83.08
13486;BME280;6815;59.336;17.998;2022-12-24T13:17:52;78581.31;;;-145.37;83.31
13486;BME280;6815;59.336;17.998;2022-12-24T13:20:27;78585.34;;;-145.37;83.25
13486;BME280;6815;59.336;17.998;2022-12-24T13:23:16;78589.38;;;-145.37;83.66
13486;BME280;6815;59.336;17.998;2022-12-24T13:25:48;78589.38;;;-145.37;83.61
13486;BME280;6815;59.336;17.998;2022-12-24T13:28:31;78629.59;;;-145.37;83.86
13486;BME280;6815;59.336;17.998;2022-12-24T13:36:14;78637.66;;;-145.37;84.63
13486;BME280;6815;59.336;17.998;2022-12-24T13:44:20;78619.53;;;-145.37;83.89
13486;BME280;6815;59.336;17.998;2022-12-24T13:49:44;78623.56;;;-145.37;83.44
13486;BME280;6815;59.336;17.998;2022-12-24T13:54:40;78627.59;;;-145.37;83.16
13486;BME280;6815;59.336;17.998;2022-12-24T13:57:37;78635.66;;;-145.37;83.12
13486;BME280;6815;59.336;17.998;2022-12-24T14:03:19;78627.59;;;-145.37;82.80
13486;BME280;6815;59.336;17.998;2022-12-24T14:06:41;78635.66;;;-145.37;82.62
13486;BME280;6815;59.336;17.998;2022-12-24T14:09:18;78655.75;;;-145.37;83.02
13486;BME280;6815;59.336;17.998;2022-12-24T14:14:31;78647.72;;;-145.37;82.83
13486;BME280;6815;59.336;17.998;2022-12-24T14:17:00;78655.75;;;-145.37;82.68
13486;BME280;6815;59.336;17.998;2022-12-24T14:19:47;78681.91;;;-145.37;82.98
13486;BME280;6815;59.336;17.998;2022-12-24T14:25:02;78693.97;;;-145.37;83.10
13486;BME280;6815;59.336;17.998;2022-12-24T14:27:38;78663.81;;;-145.37;82.91
13486;BME280;6815;59.336;17.998;2022-12-24T14:30:27;78677.88;;;-145.37;82.86
13486;BME280;6815;59.336;17.998;2022-12-24T14:32:53;78698.00;;;-145.37;83.01
13486;BME280;6815;59.336;17.998;2022-12-24T14:37:51;78687.94;;;-145.37;83.01